Stromness, United Kingdom
Current Conditions -  °F | °C
As of 12:20 AM on Saturday 01 Nov 2014 (Local Time) from EGPA Reporting Station
Drizzle Drizzle  
Wind Chill: 54°   Ceiling: Unl
Heat Index: 54°   Visibility: 4mi
Dew Point: 52°   Wind: 5mph
Humidity: 94%   Direction: 250°WSW
Pressure: 29.53"   Gusts: NA
Location:  58.96°N, 3.3°W
Report Text: EGPA 010020Z AUTO 25004KT 6000 DZ FEW023/// SCT043/// 12/11 Q1000
Loading
Personal Weather Stations






























Interactive Weather Map
Tropical Storm Tracking
New forecast layout! Learn more

10-Day Weather Forecast

Advertisements
Track Severe Weather on mobile